Welcome to Des Moines Iowa Weather. I am an independent private personal weather station on the Northwest Side of Des Moines, Iowa. Just East of Windsor Heights and just West of Glendale . This site is also mobile friendly.

There are no active watches, warnings or advisories


Visit our other weather sites:

Historical Data

Weather Station Setup



Weather Underground History page Text

Daily Summary for November 30, 2017 Units:  English    Metric   Both
« Previous Day
Next Day »
Daily Weekly Monthly Yearly Custom
  High: Low: Average:
Temperature: 52.4 °F 32.1 °F 41.6 °F
Dew Point: 30.0 °F 23.0 °F 26.5 °F
Humidity: 73 % 34 % 57 %
Wind Speed: 10.0 mph 0.0 mph 1.8 mph
Wind Gust: 12.0 mph - -
Wind:- - SSW
Pressure: 30.24 in 30.10 in -
Precipitation: 0.00 in    
Historical Graphs
 
 
Tabular Data for November 30, 2017
Time Temperature Dew Point Pressure Wind Wind Speed Wind Gust Humidity Rainfall Rate (Hourly)
00:03 38.7 °F 23.0 °F 30.10 in Calm     54 % 0.00 in
00:22 38.7 °F 24.0 °F 30.10 in Calm   2.0 mph 55 % 0.00 in
00:52 38.9 °F 24.0 °F 30.11 in Calm   2.0 mph 55 % 0.00 in
01:22 40.0 °F 25.0 °F 30.10 in NW 2.0 mph 5.0 mph 55 % 0.00 in
01:37 41.1 °F 25.0 °F 30.11 in NW 2.0 mph 10.0 mph 53 % 0.00 in
02:22 41.3 °F 26.0 °F 30.12 in NW 3.0 mph 8.0 mph 55 % 0.00 in
02:37 41.1 °F 26.0 °F 30.13 in WNW 5.0 mph 8.0 mph 56 % 0.00 in
03:08 41.4 °F 28.0 °F 30.14 in WNW 2.0 mph 11.0 mph 60 % 0.00 in
03:38 42.0 °F 30.0 °F 30.14 in WNW 10.0 mph 12.0 mph 62 % 0.00 in
03:53 41.8 °F 30.0 °F 30.15 in WNW 3.0 mph 9.0 mph 63 % 0.00 in
04:08 41.2 °F 29.0 °F 30.15 in West 1.0 mph 6.0 mph 63 % 0.00 in
04:23 40.3 °F 29.0 °F 30.16 in WNW 1.0 mph 5.0 mph 64 % 0.00 in
04:38 39.5 °F 29.0 °F 30.16 in WNW 3.0 mph 4.0 mph 66 % 0.00 in
04:53 39.2 °F 29.0 °F 30.16 in West 2.0 mph 8.0 mph 68 % 0.00 in
05:09 39.0 °F 29.0 °F 30.16 in Calm   6.0 mph 68 % 0.00 in
05:38 38.8 °F 29.0 °F 30.16 in NW 1.0 mph 6.0 mph 69 % 0.00 in
05:53 38.6 °F 29.0 °F 30.16 in WNW 2.0 mph 5.0 mph 69 % 0.00 in
06:08 38.2 °F 29.0 °F 30.16 in WNW 2.0 mph 5.0 mph 70 % 0.00 in
06:38 37.8 °F 29.0 °F 30.18 in NW 2.0 mph 6.0 mph 70 % 0.00 in
06:59 37.5 °F 29.0 °F 30.18 in West 1.0 mph 6.0 mph 70 % 0.00 in
07:14 37.3 °F 28.0 °F 30.19 in West 2.0 mph 3.0 mph 70 % 0.00 in
07:29 37.1 °F 28.0 °F 30.20 in Calm   3.0 mph 70 % 0.00 in
07:44 37.0 °F 28.0 °F 30.20 in NNW 3.0 mph 5.0 mph 70 % 0.00 in
08:00 37.1 °F 28.0 °F 30.20 in WNW 3.0 mph 5.0 mph 70 % 0.00 in
08:14 37.5 °F 28.0 °F 30.20 in Calm   5.0 mph 69 % 0.00 in
08:30 38.2 °F 28.0 °F 30.20 in West 2.0 mph 9.0 mph 68 % 0.00 in
08:45 39.0 °F 29.0 °F 30.21 in NW 1.0 mph 8.0 mph 67 % 0.00 in
09:00 39.7 °F 29.0 °F 30.21 in NW 2.0 mph 9.0 mph 65 % 0.00 in
09:15 40.6 °F 29.0 °F 30.22 in NW 3.0 mph 9.0 mph 64 % 0.00 in
09:30 41.1 °F 29.0 °F 30.22 in NNW 4.0 mph 8.0 mph 62 % 0.00 in
09:45 42.0 °F 29.0 °F 30.23 in NW 5.0 mph 11.0 mph 61 % 0.00 in
10:00 43.2 °F 30.0 °F 30.23 in WNW 3.0 mph 12.0 mph 59 % 0.00 in
10:16 44.2 °F 30.0 °F 30.24 in North 2.0 mph 10.0 mph 57 % 0.00 in
10:30 45.0 °F 30.0 °F 30.24 in West 6.0 mph 12.0 mph 55 % 0.00 in
12:01 50.4 °F 30.0 °F 30.22 in North 10.0 mph 10.0 mph 46 % 0.00 in
12:16 50.8 °F 29.0 °F 30.21 in North 4.0 mph 12.0 mph 43 % 0.00 in
12:31 51.2 °F 28.0 °F 30.21 in North 5.0 mph 10.0 mph 41 % 0.00 in
12:46 51.4 °F 28.0 °F 30.21 in North 2.0 mph 11.0 mph 41 % 0.00 in
13:01 52.1 °F 29.0 °F 30.20 in North 3.0 mph 9.0 mph 41 % 0.00 in
13:16 52.1 °F 28.0 °F 30.20 in North 3.0 mph 10.0 mph 40 % 0.00 in
13:31 52.4 °F 27.0 °F 30.20 in North 5.0 mph 10.0 mph 38 % 0.00 in
13:46 52.3 °F 27.0 °F 30.20 in North 6.0 mph 10.0 mph 38 % 0.00 in
14:16 52.1 °F 26.0 °F 30.20 in North 4.0 mph 10.0 mph 37 % 0.00 in
14:31 52.2 °F 26.0 °F 30.19 in North 1.0 mph 8.0 mph 36 % 0.00 in
14:46 52.2 °F 26.0 °F 30.20 in NE 1.0 mph 9.0 mph 36 % 0.00 in
15:01 52.2 °F 25.0 °F 30.20 in North 3.0 mph 12.0 mph 35 % 0.00 in
15:31 52.0 °F 24.0 °F 30.20 in North 3.0 mph 10.0 mph 34 % 0.00 in
15:46 51.8 °F 24.0 °F 30.20 in North 2.0 mph 11.0 mph 34 % 0.00 in
16:16 50.6 °F 24.0 °F 30.20 in Calm   9.0 mph 36 % 0.00 in
16:31 49.4 °F 24.0 °F 30.20 in Calm   3.0 mph 37 % 0.00 in
17:16 45.9 °F 24.0 °F 30.20 in Calm     43 % 0.00 in
17:31 45.4 °F 24.0 °F 30.20 in Calm     43 % 0.00 in
17:46 44.3 °F 24.0 °F 30.20 in Calm     45 % 0.00 in
18:01 43.1 °F 24.0 °F 30.20 in Calm     47 % 0.00 in
18:46 40.2 °F 24.0 °F 30.21 in Calm     53 % 0.00 in
19:01 39.5 °F 24.0 °F 30.21 in Calm     54 % 0.00 in
19:16 38.8 °F 25.0 °F 30.21 in Calm     57 % 0.00 in
20:01 37.5 °F 24.0 °F 30.22 in Calm     59 % 0.00 in
20:46 35.7 °F 24.0 °F 30.22 in Calm     63 % 0.00 in
21:01 35.1 °F 24.0 °F 30.22 in Calm     65 % 0.00 in
21:22 34.8 °F 24.0 °F 30.21 in Calm     66 % 0.00 in
21:37 34.6 °F 25.0 °F 30.21 in Calm     67 % 0.00 in
21:49 34.4 °F 24.0 °F 30.21 in Calm     67 % 0.00 in
21:51 34.3 °F 24.0 °F 30.21 in Calm     67 % 0.00 in
22:05 34.0 °F 24.0 °F 30.21 in Calm     67 % 0.00 in
22:34 33.1 °F 24.0 °F 30.21 in Calm     69 % 0.00 in
22:49 32.6 °F 24.0 °F 30.21 in Calm     70 % 0.00 in
23:04 32.2 °F 24.0 °F 30.21 in Calm     71 % 0.00 in
23:19 32.1 °F 24.0 °F 30.21 in Calm   1.0 mph 73 % 0.00 in
23:34 32.5 °F 24.0 °F 30.21 in Calm     72 % 0.00 in
23:49 32.6 °F 24.0 °F 30.21 in Calm     72 % 0.00 in
Des Moines Weather and Climate
Compliments of Weather Underground - 2.75 mb

Script developed by  Jim McMurry - jmcmurry@mwt.net Adapted for the template by  Wim van der Kuil - Leuven-Template.eu

You find our weather info also at:

Weather Underground

Equipment we use:

Weather-station
Davis VP2 Plus

Weather-program
Davis Weatherlink.Com

Weather-server
iMac (Retina 4K, 21.5-inch, Late 2015)

Provider
Hostmonster.com

Davis VP2 Plus

Davis Weatherlink.Com

iMac (Retina 4K, 21.5-inch, Late 2015)

Hostmonster.com